sensor_id;sensor_type;location;lat;lon;timestamp;temperature;humidity
59847;DHT22;45728;48.788;2.302;2024-03-07T00:00:05;5.50;99.90
59847;DHT22;45728;48.788;2.302;2024-03-07T00:02:57;5.50;99.90
59847;DHT22;45728;48.788;2.302;2024-03-07T00:05:24;5.40;99.90
59847;DHT22;45728;48.788;2.302;2024-03-07T00:07:51;5.40;99.90
59847;DHT22;45728;48.788;2.302;2024-03-07T00:10:17;5.40;99.90
59847;DHT22;45728;48.788;2.302;2024-03-07T00:12:43;5.30;99.90
59847;DHT22;45728;48.788;2.302;2024-03-07T00:15:10;5.30;99.90
59847;DHT22;45728;48.788;2.302;2024-03-07T00:17:37;5.20;99.90
59847;DHT22;45728;48.788;2.302;2024-03-07T00:20:05;5.10;99.90
59847;DHT22;45728;48.788;2.302;2024-03-07T00:22:37;5.20;99.90
59847;DHT22;45728;48.788;2.302;2024-03-07T00:25:04;5.20;99.90
59847;DHT22;45728;48.788;2.302;2024-03-07T00:27:31;5.20;99.90
59847;DHT22;45728;48.788;2.302;2024-03-07T00:29:59;5.20;99.90
59847;DHT22;45728;48.788;2.302;2024-03-07T00:32:25;5.20;99.90
59847;DHT22;45728;48.788;2.302;2024-03-07T00:34:55;5.10;99.90
59847;DHT22;45728;48.788;2.302;2024-03-07T00:37:25;5.10;99.90
59847;DHT22;45728;48.788;2.302;2024-03-07T00:39:51;5.20;99.90
59847;DHT22;45728;48.788;2.302;2024-03-07T00:42:17;5.20;99.90
59847;DHT22;45728;48.788;2.302;2024-03-07T00:44:43;5.10;99.90
59847;DHT22;45728;48.788;2.302;2024-03-07T00:47:09;5.20;99.90
59847;DHT22;45728;48.788;2.302;2024-03-07T00:49:35;5.10;99.90
59847;DHT22;45728;48.788;2.302;2024-03-07T00:52:02;5.00;99.90
59847;DHT22;45728;48.788;2.302;2024-03-07T00:54:28;5.00;99.90
59847;DHT22;45728;48.788;2.302;2024-03-07T00:56:54;5.00;99.90
59847;DHT22;45728;48.788;2.302;2024-03-07T00:59:21;4.90;99.90
59847;DHT22;45728;48.788;2.302;2024-03-07T01:01:47;4.80;99.90
59847;DHT22;45728;48.788;2.302;2024-03-07T01:04:13;4.90;99.90
59847;DHT22;45728;48.788;2.302;2024-03-07T01:06:39;4.80;99.90
59847;DHT22;45728;48.788;2.302;2024-03-07T01:09:06;4.70;99.90
59847;DHT22;45728;48.788;2.302;2024-03-07T01:11:43;4.70;99.90
59847;DHT22;45728;48.788;2.302;2024-03-07T01:14:11;4.70;99.90
59847;DHT22;45728;48.788;2.302;2024-03-07T01:16:37;4.80;99.90
59847;DHT22;45728;48.788;2.302;2024-03-07T01:19:03;4.80;99.90
59847;DHT22;45728;48.788;2.302;2024-03-07T01:21:33;4.70;99.90
59847;DHT22;45728;48.788;2.302;2024-03-07T01:23:59;4.70;99.90
59847;DHT22;45728;48.788;2.302;2024-03-07T01:26:28;4.70;99.90
59847;DHT22;45728;48.788;2.302;2024-03-07T01:28:56;4.80;99.90
59847;DHT22;45728;48.788;2.302;2024-03-07T01:31:22;4.60;99.90
59847;DHT22;45728;48.788;2.302;2024-03-07T01:33:49;4.60;99.90
59847;DHT22;45728;48.788;2.302;2024-03-07T01:36:15;4.50;99.90
59847;DHT22;45728;48.788;2.302;2024-03-07T01:38:41;4.50;99.90
59847;DHT22;45728;48.788;2.302;2024-03-07T01:41:08;4.50;99.90
59847;DHT22;45728;48.788;2.302;2024-03-07T01:43:34;4.50;99.90
59847;DHT22;45728;48.788;2.302;2024-03-07T01:46:00;4.50;99.90
59847;DHT22;45728;48.788;2.302;2024-03-07T01:48:28;4.50;99.90
59847;DHT22;45728;48.788;2.302;2024-03-07T01:50:55;4.40;99.90
59847;DHT22;45728;48.788;2.302;2024-03-07T01:53:22;4.40;99.90
59847;DHT22;45728;48.788;2.302;2024-03-07T01:55:50;4.50;99.90
59847;DHT22;45728;48.788;2.302;2024-03-07T01:58:18;4.50;99.90
59847;DHT22;45728;48.788;2.302;2024-03-07T02:00:45;4.50;99.90
59847;DHT22;45728;48.788;2.302;2024-03-07T02:03:13;4.50;99.90
59847;DHT22;45728;48.788;2.302;2024-03-07T02:05:43;4.50;99.90
59847;DHT22;45728;48.788;2.302;2024-03-07T02:08:09;4.50;99.90
59847;DHT22;45728;48.788;2.302;2024-03-07T02:10:35;4.50;99.90
59847;DHT22;45728;48.788;2.302;2024-03-07T02:13:01;4.50;99.90
59847;DHT22;45728;48.788;2.302;2024-03-07T02:15:28;4.40;99.90
59847;DHT22;45728;48.788;2.302;2024-03-07T02:17:54;4.40;99.90
59847;DHT22;45728;48.788;2.302;2024-03-07T02:20:21;4.40;99.90
59847;DHT22;45728;48.788;2.302;2024-03-07T02:22:48;4.40;99.90
59847;DHT22;45728;48.788;2.302;2024-03-07T02:25:14;4.20;99.90
59847;DHT22;45728;48.788;2.302;2024-03-07T02:27:41;4.20;99.90
59847;DHT22;45728;48.788;2.302;2024-03-07T02:30:07;4.20;99.90
59847;DHT22;45728;48.788;2.302;2024-03-07T02:32:35;4.20;99.90
59847;DHT22;45728;48.788;2.302;2024-03-07T02:35:04;4.20;99.90
59847;DHT22;45728;48.788;2.302;2024-03-07T02:37:31;4.20;99.90
59847;DHT22;45728;48.788;2.302;2024-03-07T02:39:57;4.20;99.90
59847;DHT22;45728;48.788;2.302;2024-03-07T02:42:23;4.20;99.90
59847;DHT22;45728;48.788;2.302;2024-03-07T02:44:49;4.20;99.90
59847;DHT22;45728;48.788;2.302;2024-03-07T02:47:15;4.30;99.90
59847;DHT22;45728;48.788;2.302;2024-03-07T02:49:41;4.40;99.90
59847;DHT22;45728;48.788;2.302;2024-03-07T02:52:07;4.30;99.90
59847;DHT22;45728;48.788;2.302;2024-03-07T02:54:34;4.20;99.90
59847;DHT22;45728;48.788;2.302;2024-03-07T02:57:00;4.20;99.90
59847;DHT22;45728;48.788;2.302;2024-03-07T02:59:27;4.10;99.90
59847;DHT22;45728;48.788;2.302;2024-03-07T03:01:53;4.10;99.90
59847;DHT22;45728;48.788;2.302;2024-03-07T03:04:19;4.10;99.90
59847;DHT22;45728;48.788;2.302;2024-03-07T03:06:45;4.10;99.90
59847;DHT22;45728;48.788;2.302;2024-03-07T03:09:12;4.00;99.90
59847;DHT22;45728;48.788;2.302;2024-03-07T03:11:44;3.90;99.90
59847;DHT22;45728;48.788;2.302;2024-03-07T03:14:11;4.00;99.90
59847;DHT22;45728;48.788;2.302;2024-03-07T03:16:41;3.90;99.90
59847;DHT22;45728;48.788;2.302;2024-03-07T03:19:07;4.00;99.90
59847;DHT22;45728;48.788;2.302;2024-03-07T03:21:34;4.00;99.90
59847;DHT22;45728;48.788;2.302;2024-03-07T03:24:00;4.00;99.90
59847;DHT22;45728;48.788;2.302;2024-03-07T03:26:28;4.00;99.90
59847;DHT22;45728;48.788;2.302;2024-03-07T03:28:54;4.00;99.90
59847;DHT22;45728;48.788;2.302;2024-03-07T03:31:20;4.00;99.90
59847;DHT22;45728;48.788;2.302;2024-03-07T03:33:46;3.90;99.90
59847;DHT22;45728;48.788;2.302;2024-03-07T03:36:13;3.80;99.90
59847;DHT22;45728;48.788;2.302;2024-03-07T03:38:40;3.80;99.90
59847;DHT22;45728;48.788;2.302;2024-03-07T03:41:06;3.80;99.90
59847;DHT22;45728;48.788;2.302;2024-03-07T03:43:32;3.90;99.90
59847;DHT22;45728;48.788;2.302;2024-03-07T03:45:58;3.90;99.90
59847;DHT22;45728;48.788;2.302;2024-03-07T03:48:24;3.80;99.90
59847;DHT22;45728;48.788;2.302;2024-03-07T03:50:50;3.80;99.90
59847;DHT22;45728;48.788;2.302;2024-03-07T03:53:16;3.80;99.90
59847;DHT22;45728;48.788;2.302;2024-03-07T03:55:43;3.80;99.90
59847;DHT22;45728;48.788;2.302;2024-03-07T03:58:09;3.70;99.90
59847;DHT22;45728;48.788;2.302;2024-03-07T04:00:36;3.70;99.90
59847;DHT22;45728;48.788;2.302;2024-03-07T04:03:02;3.70;99.90
59847;DHT22;45728;48.788;2.302;2024-03-07T04:05:28;3.80;99.90
59847;DHT22;45728;48.788;2.302;2024-03-07T04:07:54;3.80;99.90
59847;DHT22;45728;48.788;2.302;2024-03-07T04:10:21;3.70;99.90
59847;DHT22;45728;48.788;2.302;2024-03-07T04:12:48;3.70;99.90
59847;DHT22;45728;48.788;2.302;2024-03-07T04:15:15;3.70;99.90
59847;DHT22;45728;48.788;2.302;2024-03-07T04:17:59;3.70;99.90
59847;DHT22;45728;48.788;2.302;2024-03-07T04:20:25;3.70;99.90
59847;DHT22;45728;48.788;2.302;2024-03-07T04:22:51;3.70;99.90
59847;DHT22;45728;48.788;2.302;2024-03-07T04:25:18;3.70;99.90
59847;DHT22;45728;48.788;2.302;2024-03-07T04:27:44;3.70;99.90
59847;DHT22;45728;48.788;2.302;2024-03-07T04:30:10;3.70;99.90
59847;DHT22;45728;48.788;2.302;2024-03-07T04:32:37;3.70;99.90
59847;DHT22;45728;48.788;2.302;2024-03-07T04:35:06;3.70;99.90
59847;DHT22;45728;48.788;2.302;2024-03-07T04:37:36;3.80;99.90
59847;DHT22;45728;48.788;2.302;2024-03-07T04:40:09;3.70;99.90
59847;DHT22;45728;48.788;2.302;2024-03-07T04:42:45;3.70;99.90
59847;DHT22;45728;48.788;2.302;2024-03-07T04:45:12;3.70;99.90
59847;DHT22;45728;48.788;2.302;2024-03-07T04:47:43;3.70;99.90
59847;DHT22;45728;48.788;2.302;2024-03-07T04:50:10;3.70;99.90
59847;DHT22;45728;48.788;2.302;2024-03-07T04:52:39;3.70;99.90
59847;DHT22;45728;48.788;2.302;2024-03-07T04:55:06;3.70;99.90
59847;DHT22;45728;48.788;2.302;2024-03-07T04:57:39;3.60;99.90
59847;DHT22;45728;48.788;2.302;2024-03-07T05:00:07;3.60;99.90
59847;DHT22;45728;48.788;2.302;2024-03-07T05:02:42;3.60;99.90
59847;DHT22;45728;48.788;2.302;2024-03-07T05:05:08;3.60;99.90
59847;DHT22;45728;48.788;2.302;2024-03-07T05:07:34;3.60;99.90
59847;DHT22;45728;48.788;2.302;2024-03-07T05:10:04;3.50;99.90
59847;DHT22;45728;48.788;2.302;2024-03-07T05:12:31;3.60;99.90
59847;DHT22;45728;48.788;2.302;2024-03-07T05:14:57;3.60;99.90
59847;DHT22;45728;48.788;2.302;2024-03-07T05:17:23;3.60;99.90
59847;DHT22;45728;48.788;2.302;2024-03-07T05:19:49;3.60;99.90
59847;DHT22;45728;48.788;2.302;2024-03-07T05:22:16;3.60;99.90
59847;DHT22;45728;48.788;2.302;2024-03-07T05:24:43;3.60;99.90
59847;DHT22;45728;48.788;2.302;2024-03-07T05:27:09;3.60;99.90
59847;DHT22;45728;48.788;2.302;2024-03-07T05:29:39;3.70;99.90
59847;DHT22;45728;48.788;2.302;2024-03-07T05:32:24;3.60;99.90
59847;DHT22;45728;48.788;2.302;2024-03-07T05:34:53;3.70;99.90
59847;DHT22;45728;48.788;2.302;2024-03-07T05:37:20;3.60;99.90
59847;DHT22;45728;48.788;2.302;2024-03-07T05:39:48;3.60;99.90
59847;DHT22;45728;48.788;2.302;2024-03-07T05:42:14;3.60;99.90
59847;DHT22;45728;48.788;2.302;2024-03-07T05:44:44;3.70;99.90
59847;DHT22;45728;48.788;2.302;2024-03-07T05:47:10;3.70;99.90
59847;DHT22;45728;48.788;2.302;2024-03-07T05:49:39;3.60;99.90
59847;DHT22;45728;48.788;2.302;2024-03-07T05:52:05;3.80;99.90
59847;DHT22;45728;48.788;2.302;2024-03-07T05:54:32;3.80;99.90
59847;DHT22;45728;48.788;2.302;2024-03-07T05:56:58;3.80;99.90
59847;DHT22;45728;48.788;2.302;2024-03-07T05:59:26;3.80;99.90
59847;DHT22;45728;48.788;2.302;2024-03-07T06:01:54;3.80;99.90
59847;DHT22;45728;48.788;2.302;2024-03-07T06:04:21;3.70;99.90
59847;DHT22;45728;48.788;2.302;2024-03-07T06:06:47;3.80;99.90
59847;DHT22;45728;48.788;2.302;2024-03-07T06:09:15;3.70;99.90
59847;DHT22;45728;48.788;2.302;2024-03-07T06:11:41;3.80;99.90
59847;DHT22;45728;48.788;2.302;2024-03-07T06:14:10;3.80;99.90
59847;DHT22;45728;48.788;2.302;2024-03-07T06:16:40;3.80;99.90
59847;DHT22;45728;48.788;2.302;2024-03-07T06:19:07;3.80;99.90
59847;DHT22;45728;48.788;2.302;2024-03-07T06:21:37;3.80;99.90
59847;DHT22;45728;48.788;2.302;2024-03-07T06:24:03;3.80;99.90
59847;DHT22;45728;48.788;2.302;2024-03-07T06:26:31;3.70;99.90
59847;DHT22;45728;48.788;2.302;2024-03-07T06:29:12;3.80;99.90
59847;DHT22;45728;48.788;2.302;2024-03-07T06:31:38;3.80;99.90
59847;DHT22;45728;48.788;2.302;2024-03-07T06:34:04;3.80;99.90
59847;DHT22;45728;48.788;2.302;2024-03-07T06:36:30;3.80;99.90
59847;DHT22;45728;48.788;2.302;2024-03-07T06:38:56;3.90;99.90
59847;DHT22;45728;48.788;2.302;2024-03-07T06:41:22;4.00;99.90
59847;DHT22;45728;48.788;2.302;2024-03-07T06:43:48;3.90;99.90
59847;DHT22;45728;48.788;2.302;2024-03-07T06:46:16;3.90;99.90
59847;DHT22;45728;48.788;2.302;2024-03-07T06:48:43;3.90;99.90
59847;DHT22;45728;48.788;2.302;2024-03-07T06:51:10;3.90;99.90
59847;DHT22;45728;48.788;2.302;2024-03-07T06:53:36;3.90;99.90
59847;DHT22;45728;48.788;2.302;2024-03-07T06:56:03;3.90;99.90
59847;DHT22;45728;48.788;2.302;2024-03-07T06:58:29;3.90;99.90
59847;DHT22;45728;48.788;2.302;2024-03-07T07:00:55;3.90;99.90
59847;DHT22;45728;48.788;2.302;2024-03-07T07:03:21;3.90;99.90
59847;DHT22;45728;48.788;2.302;2024-03-07T07:05:48;3.90;99.90
59847;DHT22;45728;48.788;2.302;2024-03-07T07:08:14;4.00;99.90
59847;DHT22;45728;48.788;2.302;2024-03-07T07:10:40;4.00;99.90
59847;DHT22;45728;48.788;2.302;2024-03-07T07:13:06;4.00;99.90
59847;DHT22;45728;48.788;2.302;2024-03-07T07:15:33;4.00;99.90
59847;DHT22;45728;48.788;2.302;2024-03-07T07:17:59;4.00;99.90
59847;DHT22;45728;48.788;2.302;2024-03-07T07:20:25;4.10;99.90
59847;DHT22;45728;48.788;2.302;2024-03-07T07:22:51;4.20;99.90
59847;DHT22;45728;48.788;2.302;2024-03-07T07:25:19;4.20;99.90
59847;DHT22;45728;48.788;2.302;2024-03-07T07:27:48;4.20;99.90
59847;DHT22;45728;48.788;2.302;2024-03-07T07:30:17;4.20;99.90
59847;DHT22;45728;48.788;2.302;2024-03-07T07:32:45;4.40;99.90
59847;DHT22;45728;48.788;2.302;2024-03-07T07:35:12;4.60;99.90
59847;DHT22;45728;48.788;2.302;2024-03-07T07:37:42;4.60;99.90
59847;DHT22;45728;48.788;2.302;2024-03-07T07:40:10;4.50;99.90
59847;DHT22;45728;48.788;2.302;2024-03-07T07:42:39;4.70;99.90
59847;DHT22;45728;48.788;2.302;2024-03-07T07:45:08;4.80;99.90
59847;DHT22;45728;48.788;2.302;2024-03-07T07:47:45;4.90;99.90
59847;DHT22;45728;48.788;2.302;2024-03-07T07:50:13;5.00;99.90
59847;DHT22;45728;48.788;2.302;2024-03-07T07:52:41;5.10;99.90
59847;DHT22;45728;48.788;2.302;2024-03-07T07:55:07;5.30;99.90
59847;DHT22;45728;48.788;2.302;2024-03-07T07:57:44;5.40;99.90
59847;DHT22;45728;48.788;2.302;2024-03-07T08:00:15;5.40;99.90
59847;DHT22;45728;48.788;2.302;2024-03-07T08:05:17;5.60;99.90
59847;DHT22;45728;48.788;2.302;2024-03-07T08:07:45;5.70;99.90
59847;DHT22;45728;48.788;2.302;2024-03-07T08:10:12;5.80;99.90
59847;DHT22;45728;48.788;2.302;2024-03-07T08:12:38;5.90;99.90
59847;DHT22;45728;48.788;2.302;2024-03-07T08:15:05;6.10;99.90
59847;DHT22;45728;48.788;2.302;2024-03-07T08:17:31;6.20;99.90
59847;DHT22;45728;48.788;2.302;2024-03-07T08:19:57;6.20;99.90
59847;DHT22;45728;48.788;2.302;2024-03-07T08:22:24;6.40;99.90
59847;DHT22;45728;48.788;2.302;2024-03-07T08:24:50;6.40;99.90
59847;DHT22;45728;48.788;2.302;2024-03-07T08:27:17;6.50;99.90
59847;DHT22;45728;48.788;2.302;2024-03-07T08:29:44;6.60;99.90
59847;DHT22;45728;48.788;2.302;2024-03-07T08:32:10;6.70;99.90
59847;DHT22;45728;48.788;2.302;2024-03-07T08:34:36;6.70;99.90
59847;DHT22;45728;48.788;2.302;2024-03-07T08:37:02;6.80;99.90
59847;DHT22;45728;48.788;2.302;2024-03-07T08:39:30;6.80;99.90
59847;DHT22;45728;48.788;2.302;2024-03-07T08:41:56;7.00;99.90
59847;DHT22;45728;48.788;2.302;2024-03-07T08:44:22;7.20;99.90
59847;DHT22;45728;48.788;2.302;2024-03-07T08:46:48;7.20;99.90
59847;DHT22;45728;48.788;2.302;2024-03-07T08:49:14;7.30;99.90
59847;DHT22;45728;48.788;2.302;2024-03-07T08:51:43;7.40;99.90
59847;DHT22;45728;48.788;2.302;2024-03-07T08:54:09;7.40;99.90
59847;DHT22;45728;48.788;2.302;2024-03-07T08:56:35;7.50;99.90
59847;DHT22;45728;48.788;2.302;2024-03-07T08:59:01;7.60;99.90
59847;DHT22;45728;48.788;2.302;2024-03-07T09:01:28;7.70;99.90
59847;DHT22;45728;48.788;2.302;2024-03-07T09:03:54;7.80;99.90
59847;DHT22;45728;48.788;2.302;2024-03-07T09:06:20;8.00;99.90
59847;DHT22;45728;48.788;2.302;2024-03-07T09:08:46;8.10;99.90
59847;DHT22;45728;48.788;2.302;2024-03-07T09:11:12;8.20;99.90
59847;DHT22;45728;48.788;2.302;2024-03-07T09:13:38;8.30;99.90
59847;DHT22;45728;48.788;2.302;2024-03-07T09:16:05;8.30;99.90
59847;DHT22;45728;48.788;2.302;2024-03-07T09:18:31;8.50;99.90
59847;DHT22;45728;48.788;2.302;2024-03-07T09:20:58;8.50;99.90
59847;DHT22;45728;48.788;2.302;2024-03-07T09:23:24;8.60;99.90
59847;DHT22;45728;48.788;2.302;2024-03-07T09:25:50;8.80;99.90
59847;DHT22;45728;48.788;2.302;2024-03-07T09:28:16;8.80;99.90
59847;DHT22;45728;48.788;2.302;2024-03-07T09:30:42;8.80;99.90
59847;DHT22;45728;48.788;2.302;2024-03-07T09:33:08;9.00;99.90
59847;DHT22;45728;48.788;2.302;2024-03-07T09:35:36;9.30;99.90
59847;DHT22;45728;48.788;2.302;2024-03-07T09:38:03;9.80;99.90
59847;DHT22;45728;48.788;2.302;2024-03-07T09:40:30;10.60;99.90
59847;DHT22;45728;48.788;2.302;2024-03-07T09:42:56;10.90;99.90
59847;DHT22;45728;48.788;2.302;2024-03-07T09:45:28;10.70;99.90
59847;DHT22;45728;48.788;2.302;2024-03-07T09:47:55;11.30;99.90
59847;DHT22;45728;48.788;2.302;2024-03-07T09:50:21;12.20;99.90
59847;DHT22;45728;48.788;2.302;2024-03-07T09:52:48;11.80;99.90
59847;DHT22;45728;48.788;2.302;2024-03-07T09:55:18;12.00;99.90
59847;DHT22;45728;48.788;2.302;2024-03-07T09:57:47;11.60;99.90
59847;DHT22;45728;48.788;2.302;2024-03-07T10:00:17;12.50;99.90
59847;DHT22;45728;48.788;2.302;2024-03-07T10:03:06;13.50;99.90
59847;DHT22;45728;48.788;2.302;2024-03-07T10:05:34;13.40;99.90
59847;DHT22;45728;48.788;2.302;2024-03-07T10:08:00;14.10;99.90
59847;DHT22;45728;48.788;2.302;2024-03-07T10:10:27;14.60;99.90
59847;DHT22;45728;48.788;2.302;2024-03-07T10:12:53;14.60;99.90
59847;DHT22;45728;48.788;2.302;2024-03-07T10:15:20;13.00;99.90
59847;DHT22;45728;48.788;2.302;2024-03-07T10:17:46;12.90;99.90
59847;DHT22;45728;48.788;2.302;2024-03-07T10:20:12;13.00;99.90
59847;DHT22;45728;48.788;2.302;2024-03-07T10:22:40;12.80;99.90
59847;DHT22;45728;48.788;2.302;2024-03-07T10:25:07;12.70;99.90
59847;DHT22;45728;48.788;2.302;2024-03-07T10:27:36;13.30;99.90
59847;DHT22;45728;48.788;2.302;2024-03-07T10:30:03;13.90;99.90
59847;DHT22;45728;48.788;2.302;2024-03-07T10:32:30;13.70;99.90
59847;DHT22;45728;48.788;2.302;2024-03-07T10:34:56;14.10;99.90
59847;DHT22;45728;48.788;2.302;2024-03-07T10:37:24;13.90;99.90
59847;DHT22;45728;48.788;2.302;2024-03-07T10:39:51;13.60;99.90
59847;DHT22;45728;48.788;2.302;2024-03-07T10:42:18;12.90;99.90
59847;DHT22;45728;48.788;2.302;2024-03-07T10:44:48;12.70;99.90
59847;DHT22;45728;48.788;2.302;2024-03-07T10:47:17;12.80;99.90
59847;DHT22;45728;48.788;2.302;2024-03-07T10:50:07;13.10;99.90
59847;DHT22;45728;48.788;2.302;2024-03-07T10:58:18;13.50;99.90
59847;DHT22;45728;48.788;2.302;2024-03-07T11:00:47;13.90;99.90
59847;DHT22;45728;48.788;2.302;2024-03-07T11:03:14;13.90;99.90
59847;DHT22;45728;48.788;2.302;2024-03-07T11:05:41;13.90;99.90
59847;DHT22;45728;48.788;2.302;2024-03-07T11:08:10;13.80;99.90
59847;DHT22;45728;48.788;2.302;2024-03-07T11:10:39;13.90;99.90
59847;DHT22;45728;48.788;2.302;2024-03-07T11:13:10;13.90;99.90
59847;DHT22;45728;48.788;2.302;2024-03-07T11:15:41;14.00;99.90
59847;DHT22;45728;48.788;2.302;2024-03-07T11:18:08;14.10;99.90
59847;DHT22;45728;48.788;2.302;2024-03-07T11:20:37;14.30;99.90
59847;DHT22;45728;48.788;2.302;2024-03-07T11:23:24;14.10;99.90
59847;DHT22;45728;48.788;2.302;2024-03-07T11:26:06;14.20;99.90
59847;DHT22;45728;48.788;2.302;2024-03-07T11:28:40;14.60;99.90
59847;DHT22;45728;48.788;2.302;2024-03-07T11:31:14;14.30;99.90
59847;DHT22;45728;48.788;2.302;2024-03-07T11:33:41;13.90;99.90
59847;DHT22;45728;48.788;2.302;2024-03-07T11:36:08;14.50;99.90
59847;DHT22;45728;48.788;2.302;2024-03-07T11:38:58;14.80;99.90
59847;DHT22;45728;48.788;2.302;2024-03-07T11:41:24;14.90;99.90
59847;DHT22;45728;48.788;2.302;2024-03-07T11:43:52;15.00;99.90
59847;DHT22;45728;48.788;2.302;2024-03-07T11:46:21;15.10;99.90
59847;DHT22;45728;48.788;2.302;2024-03-07T11:48:47;15.30;99.90
59847;DHT22;45728;48.788;2.302;2024-03-07T11:51:14;15.40;99.90
59847;DHT22;45728;48.788;2.302;2024-03-07T11:53:43;15.50;99.90
59847;DHT22;45728;48.788;2.302;2024-03-07T11:56:09;14.80;99.90
59847;DHT22;45728;48.788;2.302;2024-03-07T11:58:44;14.90;99.90
59847;DHT22;45728;48.788;2.302;2024-03-07T12:01:10;15.20;99.90
59847;DHT22;45728;48.788;2.302;2024-03-07T12:03:39;15.20;99.90
59847;DHT22;45728;48.788;2.302;2024-03-07T12:06:05;15.20;99.90
59847;DHT22;45728;48.788;2.302;2024-03-07T12:08:32;15.30;99.90
59847;DHT22;45728;48.788;2.302;2024-03-07T12:10:58;14.70;99.90
59847;DHT22;45728;48.788;2.302;2024-03-07T12:13:25;15.00;99.90
59847;DHT22;45728;48.788;2.302;2024-03-07T12:15:52;15.10;99.90
59847;DHT22;45728;48.788;2.302;2024-03-07T12:18:19;15.20;99.90
59847;DHT22;45728;48.788;2.302;2024-03-07T12:20:47;15.10;99.90
59847;DHT22;45728;48.788;2.302;2024-03-07T12:23:22;14.30;99.90
59847;DHT22;45728;48.788;2.302;2024-03-07T12:25:48;14.40;99.90
59847;DHT22;45728;48.788;2.302;2024-03-07T12:28:24;14.60;99.90
59847;DHT22;45728;48.788;2.302;2024-03-07T12:30:53;14.80;99.90
59847;DHT22;45728;48.788;2.302;2024-03-07T12:33:21;14.20;99.90
59847;DHT22;45728;48.788;2.302;2024-03-07T12:35:49;14.40;99.90
59847;DHT22;45728;48.788;2.302;2024-03-07T12:38:18;14.80;99.90
59847;DHT22;45728;48.788;2.302;2024-03-07T12:40:45;14.80;99.90
59847;DHT22;45728;48.788;2.302;2024-03-07T12:45:49;14.60;99.90
59847;DHT22;45728;48.788;2.302;2024-03-07T12:48:18;14.20;99.90
59847;DHT22;45728;48.788;2.302;2024-03-07T12:50:48;14.30;99.90
59847;DHT22;45728;48.788;2.302;2024-03-07T12:53:21;14.70;99.90
59847;DHT22;45728;48.788;2.302;2024-03-07T12:55:48;14.60;99.90
59847;DHT22;45728;48.788;2.302;2024-03-07T12:58:14;14.70;99.90
59847;DHT22;45728;48.788;2.302;2024-03-07T13:00:41;14.90;99.90
59847;DHT22;45728;48.788;2.302;2024-03-07T13:03:08;14.80;99.90
59847;DHT22;45728;48.788;2.302;2024-03-07T13:05:36;14.30;99.90
59847;DHT22;45728;48.788;2.302;2024-03-07T13:08:07;14.00;99.90
59847;DHT22;45728;48.788;2.302;2024-03-07T13:10:40;14.20;99.90
59847;DHT22;45728;48.788;2.302;2024-03-07T13:13:07;14.10;99.90
59847;DHT22;45728;48.788;2.302;2024-03-07T13:15:35;13.80;99.90
59847;DHT22;45728;48.788;2.302;2024-03-07T13:18:03;13.60;99.90
59847;DHT22;45728;48.788;2.302;2024-03-07T13:20:31;14.10;99.90
59847;DHT22;45728;48.788;2.302;2024-03-07T13:22:57;14.60;99.90
59847;DHT22;45728;48.788;2.302;2024-03-07T13:25:27;15.00;99.90
59847;DHT22;45728;48.788;2.302;2024-03-07T13:30:34;14.50;99.90
59847;DHT22;45728;48.788;2.302;2024-03-07T13:33:02;14.10;99.90
59847;DHT22;45728;48.788;2.302;2024-03-07T13:35:29;14.50;99.90
59847;DHT22;45728;48.788;2.302;2024-03-07T13:37:56;14.80;99.90
59847;DHT22;45728;48.788;2.302;2024-03-07T13:40:23;14.60;99.90
59847;DHT22;45728;48.788;2.302;2024-03-07T13:42:57;14.60;99.90
59847;DHT22;45728;48.788;2.302;2024-03-07T13:47:53;14.90;99.90
59847;DHT22;45728;48.788;2.302;2024-03-07T13:50:22;14.90;99.90
59847;DHT22;45728;48.788;2.302;2024-03-07T13:52:51;14.60;99.90
59847;DHT22;45728;48.788;2.302;2024-03-07T13:58:44;14.20;99.90
59847;DHT22;45728;48.788;2.302;2024-03-07T14:01:41;14.10;99.90
59847;DHT22;45728;48.788;2.302;2024-03-07T14:07:22;14.70;99.90
59847;DHT22;45728;48.788;2.302;2024-03-07T14:13:19;14.80;99.90
59847;DHT22;45728;48.788;2.302;2024-03-07T14:28:15;14.80;99.90
59847;DHT22;45728;48.788;2.302;2024-03-07T14:30:53;15.00;99.90
59847;DHT22;45728;48.788;2.302;2024-03-07T14:33:31;15.30;99.90
59847;DHT22;45728;48.788;2.302;2024-03-07T14:36:03;14.80;99.90
59847;DHT22;45728;48.788;2.302;2024-03-07T14:38:45;14.60;99.90
59847;DHT22;45728;48.788;2.302;2024-03-07T14:41:16;14.70;99.90
59847;DHT22;45728;48.788;2.302;2024-03-07T14:43:44;15.00;99.90
59847;DHT22;45728;48.788;2.302;2024-03-07T14:46:11;14.80;99.90
59847;DHT22;45728;48.788;2.302;2024-03-07T14:48:39;14.90;99.90
59847;DHT22;45728;48.788;2.302;2024-03-07T14:51:07;14.70;99.90
59847;DHT22;45728;48.788;2.302;2024-03-07T14:53:34;14.70;99.90
59847;DHT22;45728;48.788;2.302;2024-03-07T14:56:00;14.30;99.90
59847;DHT22;45728;48.788;2.302;2024-03-07T14:58:26;14.00;99.90
59847;DHT22;45728;48.788;2.302;2024-03-07T15:00:53;13.90;99.90
59847;DHT22;45728;48.788;2.302;2024-03-07T15:03:20;14.00;99.90
59847;DHT22;45728;48.788;2.302;2024-03-07T15:05:46;13.70;99.90
59847;DHT22;45728;48.788;2.302;2024-03-07T15:08:13;13.60;99.90
59847;DHT22;45728;48.788;2.302;2024-03-07T15:10:48;13.70;99.90
59847;DHT22;45728;48.788;2.302;2024-03-07T15:13:16;13.60;99.90
59847;DHT22;45728;48.788;2.302;2024-03-07T15:15:42;13.50;99.90
59847;DHT22;45728;48.788;2.302;2024-03-07T15:18:10;13.40;99.90
59847;DHT22;45728;48.788;2.302;2024-03-07T15:20:36;13.60;99.90
59847;DHT22;45728;48.788;2.302;2024-03-07T15:23:03;13.80;99.90
59847;DHT22;45728;48.788;2.302;2024-03-07T15:25:29;13.80;99.90
59847;DHT22;45728;48.788;2.302;2024-03-07T15:27:58;13.40;99.90
59847;DHT22;45728;48.788;2.302;2024-03-07T15:30:26;13.50;99.90
59847;DHT22;45728;48.788;2.302;2024-03-07T15:33:01;13.40;99.90
59847;DHT22;45728;48.788;2.302;2024-03-07T15:35:28;13.30;99.90
59847;DHT22;45728;48.788;2.302;2024-03-07T15:37:55;13.20;99.90
59847;DHT22;45728;48.788;2.302;2024-03-07T15:40:21;13.10;99.90
59847;DHT22;45728;48.788;2.302;2024-03-07T15:42:48;13.20;99.90
59847;DHT22;45728;48.788;2.302;2024-03-07T15:45:25;13.10;99.90
59847;DHT22;45728;48.788;2.302;2024-03-07T15:47:58;13.20;99.90
59847;DHT22;45728;48.788;2.302;2024-03-07T15:50:25;13.20;99.90
59847;DHT22;45728;48.788;2.302;2024-03-07T15:52:56;13.30;99.90
59847;DHT22;45728;48.788;2.302;2024-03-07T15:55:23;13.30;99.90
59847;DHT22;45728;48.788;2.302;2024-03-07T15:57:51;13.50;99.90
59847;DHT22;45728;48.788;2.302;2024-03-07T16:00:24;13.50;99.90
59847;DHT22;45728;48.788;2.302;2024-03-07T16:03:04;13.50;99.90
59847;DHT22;45728;48.788;2.302;2024-03-07T16:05:32;13.40;99.90
59847;DHT22;45728;48.788;2.302;2024-03-07T16:08:00;13.40;99.90
59847;DHT22;45728;48.788;2.302;2024-03-07T16:10:28;13.40;99.90
59847;DHT22;45728;48.788;2.302;2024-03-07T16:12:59;13.50;99.90
59847;DHT22;45728;48.788;2.302;2024-03-07T16:15:25;13.60;99.90
59847;DHT22;45728;48.788;2.302;2024-03-07T16:17:53;13.60;99.90
59847;DHT22;45728;48.788;2.302;2024-03-07T16:20:20;13.50;99.90
59847;DHT22;45728;48.788;2.302;2024-03-07T16:22:47;13.40;99.90